Date,TemperatureHighF,TemperatureAvgF,TemperatureLowF,DewpointHighF,DewpointAvgF,DewpointLowF,HumidityHigh,HumidityAvg,HumidityLow,PressureMaxIn,PressureMinIn,WindSpeedMaxMPH,WindSpeedAvgMPH,GustSpeedMaxMPH,PrecipitationSumIn
2013-1-1,30.9,19.1,4.4,27.7,15.6,1.9,94,86,72,29.83,29.63,15,7,18,0.00
2013-1-2,20.9,13.4,0.5,18.3,10.6,-2.2,92,88,81,29.88,29.79,11,5,16,0.00
2013-1-3,26.2,20.1,1.7,23.6,17.6,-0.8,94,90,82,30.01,29.83,5,3,7,0.00
2013-1-4,33.5,27.8,25.0,25.2,22.5,18.9,90,80,71,29.84,29.70,17,5,22,0.02
2013-1-5,29.6,28.9,28.1,25.6,24.6,21.7,89,84,75,30.10,29.80,15,12,22,0.00
2013-1-6,35.3,33.3,28.1,30.8,29.1,25.5,91,85,79,29.84,29.74,9,4,22,0.01
2013-1-7,33.2,23.7,14.6,31.3,21.3,12.5,96,91,82,30.21,29.84,16,6,22,0.00
2013-1-8,37.6,25.9,17.4,27.2,21.1,15.4,95,83,59,30.21,30.08,8,3,22,0.05
2013-1-9,17.8,15.7,13.5,16.4,14.4,11.7,95,94,94,30.20,30.17,3,1,22,0.00
2013-1-10,35.6,27.9,18.6,28.1,23.2,16.7,94,83,72,30.39,30.34,10,3,22,0.00
2013-1-11,36.6,29.8,18.0,35.1,26.8,16.6,96,89,70,30.35,29.90,12,6,17,0.11
2013-1-12,41.1,37.9,35.7,41.1,37.6,34.9,100,99,96,29.95,29.89,9,6,17,0.00
2013-1-13,50.2,44.1,37.3,48.9,43.7,37.3,100,98,94,29.93,29.70,13,6,17,0.00
2013-1-14,49.8,36.5,28.5,49.0,33.3,22.1,100,88,75,30.18,29.66,20,8,26,0.02
2013-1-15,29.9,28.1,26.1,24.8,23.3,22.0,89,82,75,30.20,30.05,8,3,17,0.00
2013-1-16,31.3,27.6,25.3,28.8,25.5,21.7,96,92,80,30.05,29.65,6,3,17,0.01
2013-1-17,31.6,23.4,15.7,28.8,17.8,9.1,94,79,70,30.01,29.70,19,5,25,0.00
2013-1-18,23.4,14.8,7.6,13.9,7.9,-1.1,87,74,61,30.26,29.96,12,4,21,0.00
2013-1-19,42.4,34.5,23.8,29.1,22.0,13.9,67,60,53,30.03,29.55,12,8,21,0.00
2013-1-20,41.3,29.8,17.8,33.0,20.8,9.9,92,69,57,29.85,29.31,23,12,31,0.02
2013-1-21,21.1,14.0,6.1,15.4,10.7,3.6,93,87,73,29.86,29.74,8,2,10,0.00
2013-1-22,10.2,7.3,3.4,7.3,1.2,-2.9,88,76,64,30.00,29.86,16,8,23,0.00
2013-1-23,4.5,-2.1,-11.1,0.5,-6.2,-14.4,88,83,69,30.07,29.98,10,2,23,0.00
2013-1-24,9.9,-0.1,-12.7,6.1,-4.5,-16.4,87,82,66,30.31,30.02,17,6,23,0.00
2013-1-25,14.8,8.0,0.7,7.0,3.1,-3.5,91,81,60,30.32,29.94,16,1,23,0.00
2013-1-26,13.7,7.2,-1.8,7.6,3.2,-4.7,92,83,69,30.24,29.94,11,3,23,0.00
2013-1-27,21.7,13.3,5.6,12.5,7.4,2.8,94,78,54,30.42,30.23,8,2,23,0.00
2013-1-28,34.3,24.6,10.8,34.0,21.9,6.9,99,89,76,30.33,29.79,9,5,23,0.10
2013-1-29,44.3,37.1,32.9,44.0,36.6,32.7,100,98,92,29.95,29.76,10,4,23,0.36
2013-1-30,55.6,49.7,42.8,54.6,48.7,42.5,99,97,91,29.76,29.02,16,9,23,0.53
2013-1-31,51.2,35.0,19.9,50.5,31.5,15.2,99,87,71,29.49,28.78,21,12,33,0.40
2013-2-1,20.0,16.8,13.7,15.7,12.6,9.5,93,83,67,30.02,29.50,17,9,33,0.00
2013-2-2,16.3,12.7,6.2,11.8,9.2,3.9,93,86,76,30.04,29.86,10,3,33,0.00
2013-2-3,24.9,13.0,-2.6,17.6,9.2,-5.3,94,85,64,29.86,29.64,10,1,33,0.00
2013-2-4,17.9,14.1,8.1,15.7,11.3,6.2,93,88,81,29.79,29.66,13,6,33,0.00
2013-2-5,23.9,15.7,9.4,16.2,11.5,7.5,93,84,68,29.85,29.72,3,0,33,0.01
2013-2-6,25.6,22.0,17.6,22.4,18.5,9.6,93,87,58,30.04,29.74,16,6,33,0.00
2013-2-7,24.8,21.3,18.2,13.6,11.3,8.7,70,65,60,30.27,30.13,11,5,12,0.00
2013-2-8,26.6,22.0,19.5,23.0,16.7,11.8,90,80,59,30.12,29.76,11,7,16,0.00
2013-2-11,38.6,35.1,32.1,36.5,32.9,28.1,96,91,84,29.57,29.48,20,8,23,0.09
2013-2-12,32.6,30.5,27.4,28.9,26.6,23.9,93,86,75,29.78,29.53,18,10,26,0.00
2013-2-13,36.9,29.1,23.4,25.9,23.2,20.1,89,79,61,29.74,29.55,6,1,16,0.00
2013-2-14,23.0,19.4,14.7,20.3,17.0,12.8,93,90,88,29.67,29.59,0,0,16,0.00
2013-2-16,26.1,21.6,16.3,19.4,13.6,8.9,89,71,60,29.85,29.73,10,3,12,0.00
2013-2-17,16.3,12.0,8.5,9.3,6.2,2.8,90,78,67,29.90,29.67,25,11,31,0.01
2013-2-18,24.1,12.6,4.6,13.5,7.8,2.1,90,81,62,30.12,29.89,25,6,28,0.00
2013-2-19,37.5,29.1,20.7,32.6,24.1,12.7,98,82,64,29.96,29.49,15,7,22,0.03
2013-2-20,25.4,20.6,17.3,23.7,15.1,11.7,93,79,66,29.80,29.55,18,12,28,0.00
2013-2-21,17.6,14.1,10.3,16.2,11.8,8.0,94,90,88,30.28,29.77,16,9,26,0.00
2013-2-22,31.5,24.2,14.8,26.4,20.4,13.1,95,86,74,30.28,29.99,11,5,14,0.00
2013-2-23,35.9,33.4,28.8,35.0,31.3,23.5,99,92,80,29.99,29.67,12,6,15,0.07
2013-2-24,34.3,29.2,26.9,34.0,27.0,24.7,99,92,81,29.84,29.65,14,6,18,0.01
2013-2-25,35.7,29.4,20.5,31.6,27.4,19.3,98,92,82,30.11,29.84,10,5,18,0.00
2013-2-26,40.7,29.0,14.3,30.9,23.7,12.9,96,82,65,30.13,29.78,12,4,15,0.01
2013-2-27,34.8,32.1,28.6,33.7,31.1,27.6,99,96,86,29.79,29.39,15,7,22,0.29
2013-2-28,36.0,32.8,29.7,35.4,32.1,28.5,100,97,93,29.49,29.39,4,1,9,0.35
2013-3-1,31.8,28.9,25.2,31.0,27.7,23.2,98,95,92,29.68,29.48,16,10,22,0.01
2013-3-2,25.2,21.6,17.8,23.5,19.8,16.1,95,93,88,29.69,29.65,14,7,19,0.00
2013-3-3,22.3,18.8,15.0,18.5,16.2,13.1,94,90,83,29.69,29.63,14,7,17,0.00
2013-3-4,24.6,22.3,20.2,22.9,20.6,18.2,95,93,90,29.82,29.66,18,11,22,0.00
2013-3-5,36.1,25.2,16.6,28.9,22.7,14.8,97,90,72,29.94,29.82,13,3,20,0.00
2013-3-6,37.2,32.2,25.1,31.0,27.1,23.1,93,82,69,29.97,29.85,9,4,11,0.00
2013-3-7,35.0,30.6,25.4,27.8,25.2,22.4,97,81,66,30.03,29.94,8,2,13,0.00
2013-3-8,36.6,28.4,24.3,32.3,25.6,22.8,97,90,75,30.19,29.99,15,6,18,0.08
2013-3-9,43.3,29.8,12.9,30.7,23.7,11.3,95,79,58,30.23,30.15,4,1,9,0.00
2013-3-10,48.0,35.2,19.5,30.7,25.6,18.3,96,71,45,30.17,29.97,13,6,13,0.00
2013-3-11,44.4,41.5,38.4,40.3,33.0,29.2,86,72,61,30.00,29.70,13,9,18,0.00
2013-3-12,47.1,39.0,32.8,45.0,37.7,29.6,99,95,86,29.72,29.60,13,5,15,0.67
2013-3-13,32.9,32.4,31.6,29.7,28.7,27.6,88,86,83,29.73,29.70,8,5,11,0.00
2013-3-14,24.0,21.2,15.7,20.3,15.3,9.8,94,78,65,29.82,29.73,21,15,34,0.00
2013-3-15,31.9,24.9,14.0,29.6,20.4,9.9,94,83,67,29.85,29.52,17,6,34,0.04
2013-3-16,28.7,22.6,12.5,22.2,16.5,9.0,90,78,60,29.79,29.65,18,4,34,0.00
2013-3-17,28.4,20.8,13.0,18.1,13.5,8.9,91,74,60,30.18,29.79,14,6,34,0.00
2013-3-18,31.5,21.2,8.8,24.2,13.8,6.2,95,75,46,30.24,29.79,11,5,34,0.00
2013-3-19,36.0,27.7,22.2,35.5,26.6,20.2,98,96,92,29.79,29.51,20,6,34,0.26
2013-3-20,30.0,23.1,13.0,24.8,19.9,11.4,94,88,73,29.66,29.61,16,5,34,0.05
2013-3-21,29.6,19.0,6.5,19.2,13.0,4.4,96,78,59,29.66,29.54,11,4,34,0.01
2013-3-22,27.8,23.1,13.1,24.4,20.2,10.2,94,88,81,29.66,29.54,15,6,34,0.02
2013-3-25,41.5,36.6,29.2,27.6,26.1,23.4,79,66,55,29.53,29.38,7,2,34,0.00
2013-3-26,41.2,34.6,30.7,33.6,27.4,21.2,91,75,56,29.73,29.49,12,4,14,0.01
2013-3-27,41.3,34.5,27.4,32.9,28.6,23.5,90,79,67,29.85,29.70,16,6,20,0.00
2013-3-28,43.6,35.7,31.1,35.2,31.7,29.6,96,86,71,29.99,29.83,14,8,20,0.00
2013-3-29,39.8,36.2,32.6,34.8,31.6,29.2,90,83,75,29.99,29.94,10,4,15,0.00
2013-3-30,48.2,36.4,26.4,33.5,28.2,25.2,97,75,43,30.02,29.92,11,2,14,0.01
2013-3-31,51.9,37.0,24.9,40.7,31.6,22.9,97,82,49,29.94,29.51,15,6,20,0.08
2013-4-1,40.7,33.7,25.6,40.0,30.0,18.4,99,87,65,29.74,29.41,18,9,23,0.18
2013-4-2,27.0,23.3,20.4,22.4,20.3,18.3,95,89,72,29.83,29.71,19,10,24,0.00
2013-4-3,30.2,27.8,26.0,21.1,18.6,16.6,73,68,63,30.17,30.04,18,11,35,0.00
2013-4-4,50.1,35.7,25.5,31.2,24.2,19.0,82,64,39,30.20,29.80,10,4,35,0.00
2013-4-5,43.3,35.1,28.5,33.4,26.3,21.7,88,70,57,29.87,29.71,16,7,35,0.00
2013-4-6,44.0,31.8,22.6,26.4,17.1,11.5,88,56,29,30.15,29.87,9,2,35,0.00
2013-4-7,60.7,46.5,28.0,42.8,31.9,20.6,85,58,41,30.04,29.64,19,11,35,0.00
2013-4-8,58.7,46.2,37.4,42.3,36.7,33.3,87,70,46,29.96,29.71,8,3,35,0.02
2013-4-9,56.1,48.0,42.8,49.7,44.6,41.1,95,88,76,29.92,29.64,16,8,35,0.01
2013-4-11,33.0,31.8,30.2,31.5,29.7,27.6,94,92,89,29.92,29.88,7,4,35,0.11
2013-4-12,37.8,34.1,30.0,36.8,33.0,26.8,98,96,86,29.89,29.52,11,4,35,0.54
2013-4-13,39.4,37.5,35.4,37.5,35.5,33.8,99,92,85,29.79,29.63,9,3,35,0.10
2013-4-14,42.7,35.9,29.2,34.2,31.0,26.9,97,83,64,30.06,29.78,13,5,14,0.02
2013-4-15,62.7,45.4,28.0,46.0,36.9,26.8,97,75,49,30.14,29.99,11,4,13,0.01
2013-4-16,57.3,51.0,45.1,54.4,46.8,39.1,97,86,72,30.04,29.81,16,11,22,0.32
2013-4-17,57.8,45.4,35.7,42.0,36.6,32.1,92,73,45,30.14,30.00,10,3,14,0.00
2013-4-18,63.9,52.1,36.7,52.3,42.8,33.4,90,71,54,30.14,29.73,19,10,24,0.00
2013-4-19,69.2,58.4,40.5,61.1,53.6,37.6,96,85,68,29.73,29.27,17,12,27,0.52
2013-4-20,44.7,38.0,30.6,38.0,31.1,22.1,91,77,57,30.19,29.54,16,8,24,0.00
2013-4-21,47.7,35.2,27.2,29.3,23.5,19.0,87,64,36,30.48,30.19,10,3,14,0.00
2013-4-22,55.4,41.2,27.3,29.2,25.5,21.0,91,57,31,30.50,30.26,11,3,15,0.00
2013-4-23,59.4,44.7,31.2,43.6,34.4,27.3,89,69,46,30.28,29.91,10,4,12,0.00
2013-4-24,70.2,52.4,37.0,56.5,45.8,35.1,97,80,53,29.92,29.49,20,7,25,0.35
2013-4-25,54.6,42.1,35.3,39.2,33.9,29.7,93,75,41,30.10,29.72,20,6,31,0.05
2013-4-26,50.9,41.8,32.6,36.8,33.8,29.3,93,74,48,30.30,30.08,11,3,15,0.01
2013-4-27,63.1,45.3,27.9,41.2,33.6,26.1,94,69,34,30.30,30.11,8,2,15,0.00
2013-4-28,70.8,53.7,33.7,44.8,39.6,32.4,97,64,30,30.12,29.89,7,3,11,0.00
2013-4-29,56.3,51.0,46.6,48.9,46.4,39.2,94,85,53,29.98,29.92,12,7,13,0.14
2013-4-30,64.9,56.0,47.6,54.5,50.2,45.2,94,82,68,30.08,29.98,9,5,13,0.01
2013-5-1,74.0,58.5,41.5,46.1,40.6,34.4,94,57,28,30.24,30.09,6,3,11,0.00
2013-5-2,77.4,60.7,42.0,48.1,41.5,36.6,87,54,25,30.27,30.08,7,2,11,0.00
2013-5-3,70.1,60.6,49.9,46.6,40.7,33.5,73,50,30,30.20,30.07,8,4,11,0.00
2013-5-4,72.3,56.6,37.3,47.6,39.7,34.3,92,57,28,30.15,29.98,7,2,11,0.00
2013-5-5,73.9,58.6,42.7,49.7,40.1,29.5,93,56,22,30.06,29.92,8,2,12,0.00
2013-5-6,74.9,57.6,37.0,45.5,37.4,27.0,91,52,17,30.03,29.85,6,2,11,0.00
2013-5-7,77.8,62.8,46.7,55.4,48.0,41.3,95,63,31,29.97,29.82,6,2,11,0.00
2013-5-8,66.9,59.1,48.3,60.2,54.9,45.8,96,86,67,29.91,29.75,8,2,11,0.12
2013-5-9,66.6,56.3,48.1,57.9,53.1,47.4,100,90,67,29.77,29.69,7,1,11,0.50
2013-5-10,71.4,58.8,44.6,60.8,53.7,44.2,100,85,59,29.81,29.63,10,4,12,0.13
2013-5-11,63.2,55.8,47.8,60.8,54.3,46.2,98,95,85,29.63,29.48,10,4,12,0.08
2013-5-12,52.6,45.7,34.6,47.4,38.6,28.5,98,79,45,29.73,29.50,16,6,20,0.03
2013-5-13,44.7,38.1,31.8,36.3,31.1,28.2,95,76,60,29.94,29.71,13,6,17,0.01
2013-5-14,55.6,42.4,30.3,33.9,30.7,28.0,95,67,37,29.97,29.85,9,3,11,0.00
2013-5-15,70.2,49.2,30.2,57.4,42.2,28.3,95,79,55,29.87,29.40,16,7,18,0.10
2013-5-16,57.4,56.6,55.3,41.8,40.7,39.7,58,55,53,29.56,29.54,10,7,14,0.00
2013-5-20,80.3,73.2,61.8,67.8,63.6,60.0,95,73,59,29.86,29.71,3,1,11,0.00
2013-5-21,83.9,69.0,58.9,70.5,64.0,57.6,98,85,58,29.74,29.55,17,3,22,1.21
2013-5-22,79.2,69.5,61.5,72.8,66.2,60.9,99,90,74,29.63,29.54,8,4,12,0.22
2013-5-23,73.5,65.9,59.7,66.2,62.3,58.6,98,89,68,29.61,29.50,8,5,13,0.22
2013-5-24,59.8,44.3,40.0,59.2,43.2,38.7,99,96,92,29.91,29.50,15,7,25,0.35
2013-5-25,42.8,42.4,42.0,41.4,40.7,39.8,96,93,91,29.91,29.86,7,5,10,0.05
2013-5-28,63.5,58.0,54.3,54.3,52.4,47.4,97,82,59,29.99,29.89,9,6,16,0.12
2013-5-29,80.1,63.9,54.2,70.4,61.6,53.4,100,93,67,29.89,29.72,18,4,27,1.11
2013-5-30,84.1,70.7,58.5,71.8,65.4,58.0,100,85,59,29.93,29.84,10,3,13,0.01
2013-5-31,88.2,74.0,59.8,71.7,64.4,59.5,100,75,44,29.92,29.73,8,3,11,0.01
2013-6-1,84.8,74.1,59.8,71.1,65.4,58.4,98,75,58,29.76,29.60,7,3,10,0.00
2013-6-2,77.5,70.0,63.4,71.7,65.2,57.0,97,85,70,29.63,29.50,10,4,19,0.16
2013-6-3,64.1,56.0,49.4,58.1,48.6,39.3,91,77,56,29.79,29.62,13,6,17,0.00
2013-6-4,64.9,54.0,45.4,46.1,41.6,36.4,86,65,37,29.98,29.79,14,9,19,0.00
2013-6-5,70.7,56.9,41.6,49.9,44.2,39.7,96,67,36,30.04,29.91,4,1,10,0.00
2013-6-6,64.4,55.2,47.2,57.2,50.6,45.5,97,85,55,29.93,29.75,11,3,15,0.51
2013-6-7,58.4,55.5,53.4,57.5,54.8,52.3,98,97,95,29.75,29.60,7,4,9,0.41
2013-6-8,64.3,57.0,53.2,60.7,55.5,52.4,98,95,87,29.89,29.58,11,4,14,0.02
2013-6-9,70.4,59.0,50.1,60.3,54.8,49.1,99,87,60,30.01,29.88,8,3,14,0.00
2013-6-11,66.9,61.0,56.3,65.1,59.5,54.3,98,95,92,29.55,29.42,15,9,21,0.15
2013-6-12,70.8,60.4,53.0,57.6,54.3,51.7,96,81,57,29.71,29.55,16,6,25,0.06
2013-6-13,56.1,54.8,51.0,55.5,53.8,50.2,98,96,94,29.65,29.41,10,4,16,0.04
2013-6-14,69.1,59.6,51.3,63.1,56.2,50.3,98,89,75,29.74,29.54,16,6,22,0.05
2013-6-15,71.2,60.4,46.7,55.8,50.6,46.2,99,73,46,29.84,29.74,11,3,17,0.04
2013-6-16,66.3,59.3,49.8,63.4,56.0,48.4,98,89,72,29.80,29.52,10,4,16,0.03
2013-6-17,77.7,65.4,56.4,65.5,60.4,54.6,99,85,52,29.73,29.63,13,4,33,0.02
2013-6-18,68.6,59.9,54.0,60.5,54.7,47.7,99,84,57,29.80,29.70,4,1,16,0.02
2013-6-19,68.8,57.9,47.3,48.5,46.5,42.5,94,69,43,30.01,29.80,9,2,16,0.01
2013-6-20,77.0,57.0,41.6,58.1,48.0,40.8,98,76,45,30.09,30.01,8,2,16,0.01
2013-6-24,84.8,81.1,68.2,73.8,70.5,63.4,86,71,65,29.82,29.72,8,4,13,0.01
2013-6-25,74.9,71.9,67.5,71.6,69.6,66.6,97,92,87,29.63,29.59,5,2,7,0.01
2013-6-26,80.0,70.5,64.3,70.8,66.7,63.1,99,88,66,29.63,29.58,8,2,9,0.01
2013-6-27,82.1,68.8,60.1,71.4,64.8,59.8,100,89,56,29.62,29.40,9,2,12,0.00
2013-6-28,71.2,66.4,63.3,66.5,64.4,62.3,99,93,82,29.40,29.24,10,3,14,0.01
2013-6-29,72.8,66.1,60.6,67.4,63.6,60.0,100,92,79,29.50,29.30,11,3,13,0.01
2013-6-30,80.9,69.4,60.7,70.6,65.4,60.4,100,88,62,29.71,29.50,6,2,7,0.00
2013-7-1,73.0,67.9,65.5,69.9,67.2,65.2,100,98,90,29.80,29.70,5,1,7,2.47
2013-7-2,81.4,72.2,66.4,76.1,70.2,66.4,100,94,75,29.90,29.79,8,2,9,0.15
2013-7-3,84.5,75.1,68.6,74.7,70.8,68.0,98,87,64,29.98,29.89,8,3,10,0.00
2013-7-4,85.1,75.0,68.5,75.9,71.6,67.6,98,90,69,29.99,29.89,9,4,13,0.77
2013-7-5,85.7,77.5,68.9,76.9,72.3,67.7,98,85,64,29.95,29.85,10,2,14,1.25
2013-7-6,68.8,67.5,65.8,67.6,67.0,65.4,99,98,96,29.91,29.89,2,0,6,0.00
2013-7-7,84.6,77.9,69.2,75.6,72.4,68.6,99,84,67,29.83,29.70,9,3,11,1.09
2013-7-8,72.8,68.9,67.1,69.3,67.9,66.5,100,97,85,29.81,29.76,6,1,8,0.07
2013-7-12,78.8,73.1,65.4,66.4,62.7,60.3,92,71,57,29.97,29.90,3,1,5,0.00
2013-7-13,78.5,69.9,62.4,70.7,65.4,59.9,96,86,76,30.08,29.98,8,2,9,0.00
2013-7-14,86.2,75.2,65.4,74.1,69.7,65.0,100,85,63,30.14,30.02,6,2,8,0.00
2013-7-15,86.0,75.5,66.9,72.1,68.5,64.7,99,80,59,30.08,29.98,10,3,13,0.00
2013-7-16,87.7,75.6,62.4,71.8,67.4,61.8,99,78,52,30.07,29.97,8,2,10,0.00
2013-7-17,91.9,77.8,64.0,73.9,69.6,63.2,99,78,53,30.04,29.84,7,2,11,0.00
2013-7-18,90.3,80.3,70.4,74.8,71.9,69.2,98,77,55,29.86,29.74,10,4,13,0.00
2013-7-19,90.6,80.2,68.9,76.4,72.3,68.0,98,79,56,29.74,29.51,8,4,12,0.00
2013-7-23,79.7,72.5,64.6,70.0,67.3,63.6,98,85,67,29.47,29.39,9,3,11,0.98
2013-7-24,67.7,60.7,51.3,66.3,56.3,49.3,99,86,70,29.85,29.43,13,5,19,0.02
2013-7-25,74.7,58.3,44.7,60.0,51.2,44.0,100,80,49,29.95,29.85,4,1,6,0.01
2013-7-26,76.7,62.8,48.2,61.9,54.4,47.7,100,77,41,29.92,29.82,6,1,9,0.01
2013-7-27,78.9,65.8,50.5,66.2,59.8,50.0,100,83,56,29.85,29.70,8,3,10,0.25
2013-7-28,72.6,66.4,61.2,67.2,64.4,59.8,99,93,79,29.78,29.69,10,3,11,0.06
2013-7-29,74.5,62.4,53.2,63.0,57.0,52.7,100,84,56,29.94,29.78,10,2,11,0.01
2013-7-30,73.1,64.2,54.7,60.8,57.2,52.7,98,79,61,30.00,29.93,11,4,15,0.00
2013-7-31,76.3,63.8,51.1,63.7,57.7,50.6,100,82,54,30.00,29.82,5,1,6,0.01
2013-8-1,72.3,62.7,55.5,69.3,61.4,54.9,99,96,89,29.82,29.59,9,3,12,0.24
2013-8-2,75.6,63.9,56.9,63.8,59.2,55.9,100,86,56,29.71,29.65,9,2,11,0.01
2013-8-3,73.3,64.7,56.8,61.9,58.0,52.7,98,80,57,29.72,29.62,12,4,15,0.08
2013-8-4,68.5,62.1,56.2,61.1,55.5,52.7,94,80,61,29.82,29.69,15,7,21,0.12
2013-8-5,71.7,59.5,46.6,54.8,50.6,45.6,98,75,46,29.92,29.82,9,3,12,0.00
2013-8-6,75.0,60.0,45.7,61.2,53.9,45.2,99,82,52,29.93,29.88,6,2,11,0.01
2013-8-7,70.8,65.0,57.5,65.8,61.7,55.5,95,89,80,29.90,29.78,10,6,14,0.00
2013-8-8,80.3,71.6,64.6,72.5,68.0,63.6,98,89,72,29.82,29.72,8,3,12,0.00
2013-8-9,75.5,69.6,63.9,72.2,68.0,61.2,100,95,86,29.73,29.60,10,3,13,0.63
2013-8-10,66.0,62.7,60.5,61.2,59.3,56.7,94,89,72,29.82,29.70,12,4,15,0.00
2013-8-13,74.2,65.0,55.8,68.1,61.4,51.0,99,88,76,29.64,29.49,14,6,18,1.12
2013-8-14,63.3,57.0,52.6,57.2,52.0,48.9,92,83,73,29.86,29.61,13,6,17,0.02
2013-8-15,70.1,60.4,52.7,57.2,52.3,49.2,95,76,55,29.95,29.86,10,4,12,0.00
2013-8-16,73.0,60.1,48.4,59.2,53.2,48.1,100,81,51,30.05,29.94,9,2,12,0.01
2013-8-17,78.7,62.1,47.1,61.3,53.8,46.8,100,78,42,30.14,30.05,3,1,6,0.01
2013-8-18,74.1,62.9,53.2,63.7,58.2,52.8,99,86,61,30.09,29.93,4,1,6,0.00
2013-8-19,78.5,65.8,56.7,64.1,58.8,56.2,99,81,48,29.94,29.83,7,2,11,0.00
2013-8-20,80.0,65.7,53.1,65.8,59.6,52.8,100,83,56,29.95,29.87,8,2,12,0.01
2013-8-21,83.3,68.3,54.9,67.5,60.9,54.6,100,80,47,30.00,29.84,7,2,7,0.01
2013-8-22,84.8,70.2,58.4,69.6,64.2,57.7,98,84,52,29.86,29.66,13,3,19,0.32
2013-8-23,74.4,64.0,53.2,65.5,57.7,51.7,99,81,54,30.00,29.74,8,1,12,0.01
2013-8-24,66.1,50.8,45.7,57.9,49.4,45.2,99,95,66,30.17,30.00,2,0,3,0.00
2013-8-27,77.9,72.6,63.3,70.4,67.3,62.7,98,84,72,29.75,29.68,4,1,5,0.11
2013-8-28,86.1,70.8,61.2,73.4,66.3,61.2,100,88,52,29.73,29.63,5,1,7,0.01
2013-8-29,84.2,69.2,58.3,71.1,65.4,58.0,100,89,57,29.83,29.73,5,1,6,0.08
2013-8-30,82.3,69.4,61.3,71.5,65.4,61.0,100,89,62,29.80,29.60,4,2,8,0.01
2013-8-31,77.5,70.5,66.2,74.0,68.9,65.1,99,95,84,29.64,29.53,5,2,9,0.31
2013-9-1,81.9,72.3,66.5,72.6,68.7,65.6,99,89,72,29.66,29.57,4,1,7,0.00
2013-9-2,79.8,68.7,61.0,73.3,66.5,60.7,100,93,76,29.60,29.42,17,3,29,1.24
2013-9-3,65.7,62.5,59.1,64.4,58.6,55.7,98,87,72,29.71,29.56,9,4,11,0.00
2013-9-4,73.9,64.6,55.0,59.8,56.6,52.7,94,77,52,29.80,29.71,13,4,15,0.00
2013-9-5,66.0,58.9,43.8,60.2,48.8,40.9,93,71,44,30.01,29.71,11,4,15,0.00
2013-9-6,67.3,51.6,38.2,51.1,43.8,37.5,99,78,44,30.12,29.95,6,2,9,0.01
2013-9-7,52.3,47.4,46.2,50.6,46.6,45.5,98,97,94,29.95,29.88,4,2,6,0.00
2013-9-9,69.3,62.4,48.5,58.0,53.1,46.4,97,73,54,30.04,29.88,9,5,11,0.01
2013-9-10,82.0,69.7,58.4,75.7,66.4,55.2,98,89,79,29.91,29.77,12,5,21,0.32
2013-9-11,89.1,75.1,66.2,78.5,71.0,65.2,99,88,59,29.88,29.73,14,4,17,0.56
2013-9-12,69.0,66.0,65.3,68.5,65.6,64.7,99,99,98,29.73,29.66,7,4,10,0.00
2013-9-13,55.1,51.4,48.6,54.0,50.2,46.6,97,96,93,29.76,29.59,12,5,17,0.19
2013-9-14,48.3,47.1,46.2,46.5,45.3,44.3,95,93,89,29.88,29.75,5,3,14,0.00
2013-9-15,63.9,57.8,50.1,54.6,50.7,47.2,98,78,57,30.04,29.90,5,2,8,0.01
2013-9-16,56.0,50.9,39.6,53.0,48.3,37.0,97,91,80,30.18,29.89,11,2,13,0.10
2013-9-17,61.8,46.0,32.5,45.7,39.5,31.5,98,81,47,30.34,30.17,4,1,8,0.00
2013-9-18,68.9,51.9,36.8,53.8,45.5,36.3,99,82,49,30.17,29.97,5,2,8,0.01
2013-9-19,71.0,48.6,41.4,56.4,46.3,40.6,98,93,58,30.00,29.87,3,1,8,0.01
2013-9-20,75.7,59.9,46.3,64.3,54.5,45.8,99,84,59,29.90,29.71,10,3,12,0.01
2013-9-21,70.2,61.1,56.4,60.9,57.1,54.6,98,88,67,29.73,29.42,14,7,23,0.39
2013-9-22,56.6,51.1,44.6,56.0,47.0,41.3,98,86,65,29.81,29.46,14,7,23,0.07
2013-9-23,54.0,45.2,40.6,43.3,40.3,38.2,93,83,64,29.95,29.80,12,4,23,0.00
2013-9-24,61.2,46.8,34.3,49.0,41.3,33.5,99,82,58,29.95,29.79,10,3,15,0.00
2013-9-25,67.8,48.8,36.8,54.3,43.6,36.3,100,84,52,29.84,29.74,6,1,9,0.01
2013-9-26,57.9,42.9,38.7,54.2,41.9,38.1,99,96,85,29.91,29.82,1,0,3,0.00
2013-9-29,51.7,51.4,51.1,51.4,51.2,51.1,100,100,99,30.04,30.04,3,2,3,0.00
2013-10-3,70.7,55.5,41.6,56.4,48.1,40.8,100,79,40,29.98,29.84,7,1,0,0.01
2013-10-4,68.4,58.6,51.4,66.3,56.9,50.0,99,94,87,29.90,29.82,2,0,0,0.85
2013-10-5,63.2,59.6,57.9,63.2,59.2,57.8,100,99,97,29.91,29.86,1,0,0,0.08
2013-10-6,58.4,54.0,52.6,57.8,53.2,51.0,99,97,93,29.91,29.86,2,1,0,0.65
2013-10-7,53.6,6.7,53.6,53.3,-80.8,-99.9,99,12,99,29.87,29.87,2,0,0,0.00
2013-10-8,38.3,33.5,38.3,38.0,20.6,-99.9,99,86,99,30.24,30.24,0,0,0,0.00
2013-10-9,64.2,40.3,37.9,48.9,39.0,37.6,100,96,50,30.27,30.15,3,0,3,0.00
2013-10-10,61.4,57.7,55.4,46.5,45.4,43.1,71,64,51,30.12,30.10,1,0,3,0.00
2013-10-15,66.3,59.7,49.9,57.3,53.9,49.4,98,82,69,30.08,29.92,2,0,6,0.00
2013-10-17,53.4,53.2,53.1,50.7,50.6,50.5,91,91,90,29.70,29.69,1,1,5,0.06
2013-10-22,49.3,49.2,49.2,43.1,43.0,43.0,79,79,79,29.58,29.58,6,6,7,0.00
2013-10-24,38.2,33.5,30.2,34.0,30.9,28.3,94,90,84,29.67,29.63,6,2,8,0.10
2013-10-29,30.6,30.4,30.2,24.2,23.7,23.4,77,76,75,30.24,30.22,0,0,19,0.00
2013-10-31,50.9,50.5,49.7,50.4,49.7,48.9,98,97,97,29.83,29.81,8,8,12,0.05
2013-11-2,50.5,45.5,39.0,45.3,42.0,38.0,96,88,81,29.48,29.46,7,3,9,0.00
2013-11-5,46.7,46.5,46.2,37.0,36.8,36.6,70,69,68,30.31,30.31,9,6,9,0.00
2013-11-12,24.4,24.4,24.4,21.6,21.6,21.5,89,89,89,30.12,30.11,11,9,11,0.00
2013-11-13,26.5,25.5,24.9,19.6,19.3,19.0,79,77,75,30.13,30.12,0,0,11,0.00
2013-11-18,45.1,44.9,44.7,31.7,31.5,31.1,60,59,58,29.50,29.49,14,13,15,0.00
2013-11-22,43.7,43.1,42.8,43.2,42.7,42.3,99,98,98,29.79,29.78,2,1,4,0.00
2013-11-27,32.4,32.2,31.9,31.9,31.5,31.1,98,98,97,29.39,29.36,11,9,14,1.02
2013-11-29,25.2,16.0,2.2,21.6,12.7,-0.3,95,87,77,30.62,30.44,10,2,15,0.02
2013-11-30,26.7,11.3,-2.3,18.6,6.1,-5.0,93,81,60,30.62,30.26,10,2,14,0.00
2013-12-4,35.7,31.7,29.4,32.8,29.7,27.9,97,92,88,29.94,29.92,4,1,4,0.01
2013-12-5,52.1,44.7,30.9,51.0,43.5,29.9,98,96,92,29.93,29.70,11,6,15,0.01
2013-12-6,41.0,33.1,28.4,39.9,30.9,26.9,96,92,85,30.03,29.78,9,5,15,0.25
2013-12-7,28.3,26.2,22.2,26.8,22.5,16.3,95,86,73,30.36,30.01,15,7,20,0.00
2013-12-8,23.6,20.3,15.9,19.8,17.3,13.3,91,88,85,30.43,30.34,7,2,9,0.00
2013-12-9,35.3,33.6,29.8,33.5,31.5,26.3,95,92,83,29.87,29.74,14,7,15,0.03
2013-12-10,31.3,24.7,18.1,26.3,19.8,13.4,91,82,74,29.87,29.71,17,6,20,0.03
2013-12-11,23.5,20.2,16.2,19.8,14.7,9.2,92,79,65,30.06,29.87,16,7,16,0.01
2013-12-12,18.1,12.1,1.3,13.0,7.7,-2.2,92,82,67,30.17,29.89,10,3,14,0.01
2013-12-13,21.6,15.5,8.7,18.8,11.9,5.6,92,86,80,30.24,29.85,12,5,21,0.00
2013-12-14,11.6,8.0,6.1,9.7,4.3,0.4,92,85,75,30.35,29.80,8,2,11,0.00
2013-12-15,24.5,20.4,11.9,23.3,18.5,10.0,96,92,88,29.78,29.46,13,5,15,0.00
2013-12-16,19.4,11.2,-4.2,16.9,8.6,-7.2,92,89,84,30.06,29.60,16,5,19,0.00
2013-12-17,20.1,6.5,-12.4,18.4,4.3,-15.6,94,90,84,30.06,29.85,7,2,10,0.00
2013-12-18,28.8,20.8,8.7,23.8,17.1,6.6,95,86,73,29.92,29.83,12,3,16,0.02
2013-12-19,36.6,30.0,21.8,28.6,24.0,17.7,89,79,66,29.93,29.80,9,3,11,0.03
2013-12-20,44.0,37.7,30.9,40.1,34.7,27.5,99,89,70,29.89,29.71,6,3,13,0.38
2013-12-21,49.2,45.6,39.4,49.2,45.2,38.9,100,98,96,29.71,29.60,9,4,12,0.49
2013-12-22,61.4,52.6,37.5,57.6,49.7,35.6,100,90,73,29.79,29.39,16,5,23,0.52
2013-12-23,40.2,35.5,25.2,39.4,34.5,23.4,99,96,85,30.04,29.77,16,4,17,0.03
2013-12-24,25.1,20.0,9.3,23.3,17.1,7.0,93,88,82,30.23,29.99,17,4,20,0.03
2013-12-25,20.5,12.4,2.8,13.6,7.5,0.3,91,81,72,30.39,30.18,13,3,14,0.00
2013-12-26,26.1,21.9,18.6,24.1,19.3,13.2,95,90,73,30.17,29.94,9,6,12,0.00
2013-12-27,27.5,23.8,18.4,25.0,20.5,16.4,95,87,79,30.12,30.03,8,2,11,0.00
2013-12-28,40.4,30.1,17.8,32.9,26.3,16.4,97,86,71,30.02,29.85,8,2,11,0.01
2013-12-29,38.9,32.8,26.4,34.6,30.4,24.7,99,91,72,29.85,29.46,8,2,10,0.37
2013-12-30,35.2,17.5,6.7,34.3,15.1,4.4,97,90,85,30.04,29.51,17,7,25,0.47
2013-12-31,21.7,13.3,6.0,19.0,9.5,3.7,91,85,68,30.09,29.83,17,6,22,0.00
2014-1-1,18.0,14.3,12.1,14.2,10.1,6.7,91,83,75,30.22,30.07,9,3,11,0.00
2014-1-2,12.1,8.3,3.6,9.7,5.9,0.8,91,90,88,30.16,29.74,7,1,10,0.00